Hyde Park, Vermont
Current Conditions -  °F | °C
As of 11:54 AM on Thursday 23 Oct 2014 (Local Time) from KMVL Reporting Station
Overcast Overcast  
Wind Chill: 40°   Ceiling: 1500
Heat Index: 45°   Visibility: 10mi
Dew Point: 41°   Wind: 10mph
Humidity: 86%   Direction: 360°N
Pressure: 29.95"   Gusts: NA
Location:  44.59°N, 72.62°W
Report Text: KMVL 231554Z AUTO 36009KT 10SM OVC015 07/05 A2995 RMK AO2 RAE40 SLP145 P0001 T00720050
Loading
Personal Weather Stations






























Interactive Weather Map
Tropical Storm Tracking
New forecast layout! Learn more

10-Day Weather Forecast

Advertisements
Track Severe Weather on mobile